Time;durP1;ratioP1;P1;durP2;ratioP2;P2;SDS_P1;SDS_P2;PMS_P1;PMS_P2;Temp;Humidity;BMP_temperature;BMP_pressure;BME280_temperature;BME280_humidity;BME280_pressure;Samples;Min_cycle;Max_cycle;Signal;HPM_P1;HPM_P2
2022/09/04 00:02:25;;;;;;;10.73;6.10;;;;;;;20.12;100.00;99952.06;4931800;29;20035;-88
2022/09/04 00:05:13;;;;;;;11.48;6.15;;;;;;;19.96;100.00;99957.47;4986878;28;20394;-88
2022/09/04 00:07:53;;;;;;;9.38;6.10;;;;;;;20.20;100.00;99953.81;4992149;28;20022;-88
2022/09/04 00:10:49;;;;;;;12.95;6.97;;;;;;;20.20;100.00;99954.66;4992120;28;20026;-88
2022/09/04 00:13:22;;;;;;;11.55;6.97;;;;;;;20.06;100.00;99955.41;4988967;28;20035;-88
2022/09/04 00:16:23;;;;;;;12.63;7.10;;;;;;;19.81;100.00;99955.56;5003960;28;20026;-88
2022/09/04 00:19:14;;;;;;;9.98;6.28;;;;;;;20.00;100.00;99948.13;5011564;28;20037;-88
2022/09/04 00:22:00;;;;;;;10.90;6.75;;;;;;;20.15;100.00;99951.69;5011090;28;20058;-88
2022/09/04 00:24:50;;;;;;;12.25;6.80;;;;;;;20.21;100.00;99961.63;5011528;28;20068;-88
2022/09/04 00:27:23;;;;;;;13.00;6.72;;;;;;;20.08;100.00;99956.06;5011626;28;20061;-88
2022/09/04 00:30:02;;;;;;;13.48;6.43;;;;;;;20.14;100.00;99966.03;5010049;28;20030;-88
2022/09/04 00:32:48;;;;;;;9.32;6.45;;;;;;;20.16;100.00;99958.69;5011267;28;20105;-88
2022/09/04 00:35:16;;;;;;;17.10;7.38;;;;;;;19.93;100.00;99965.84;5011833;28;20519;-88
2022/09/04 00:37:49;;;;;;;10.88;6.68;;;;;;;20.10;100.00;99962.06;5011366;28;20037;-88
2022/09/04 00:40:28;;;;;;;13.90;7.75;;;;;;;20.05;100.00;99966.25;5011443;28;20038;-88
2022/09/04 00:43:20;;;;;;;11.38;6.38;;;;;;;20.44;100.00;99967.97;5011337;28;20033;-88
2022/09/04 00:45:59;;;;;;;11.63;6.55;;;;;;;20.41;100.00;99967.31;5014541;28;20557;-88
2022/09/04 00:48:35;;;;;;;11.07;6.53;;;;;;;20.28;100.00;99968.91;5014736;28;20062;-88
2022/09/04 00:51:16;;;;;;;15.63;7.72;;;;;;;20.05;100.00;99972.41;5013672;28;20021;-88
2022/09/04 00:53:44;;;;;;;18.35;7.40;;;;;;;20.11;100.00;99969.03;5014827;28;20423;-88
2022/09/04 00:56:16;;;;;;;12.80;7.45;;;;;;;20.24;100.00;99970.28;5014571;28;20365;-88
2022/09/04 00:59:03;;;;;;;18.60;7.88;;;;;;;20.18;100.00;99985.16;5014559;28;20026;-88
2022/09/04 01:01:28;;;;;;;12.45;7.13;;;;;;;20.34;100.00;99986.88;5014598;28;20156;-87
2022/09/04 01:04:12;;;;;;;12.80;7.65;;;;;;;20.16;100.00;99985.34;5014494;28;20455;-88
2022/09/04 01:06:40;;;;;;;13.32;7.28;;;;;;;20.37;100.00;99991.84;5014582;28;20030;-88
2022/09/04 01:09:16;;;;;;;18.45;7.32;;;;;;;20.44;100.00;99987.47;5014426;28;20034;-88
2022/09/04 01:12:04;;;;;;;15.20;7.22;;;;;;;20.52;100.00;99984.75;5014512;28;20029;-88
2022/09/04 01:14:59;;;;;;;16.50;7.57;;;;;;;20.45;100.00;99986.44;5013850;28;20033;-88
2022/09/04 01:17:34;;;;;;;14.02;6.95;;;;;;;20.40;100.00;99984.34;5012893;28;20072;-88
2022/09/04 01:20:15;;;;;;;10.13;6.63;;;;;;;20.46;100.00;99985.47;5014345;28;20022;-88
2022/09/04 01:23:11;;;;;;;10.38;6.60;;;;;;;20.46;100.00;99980.13;5014404;28;20045;-88
2022/09/04 01:25:59;;;;;;;10.70;6.40;;;;;;;20.51;100.00;99971.59;5014407;28;20096;-88
2022/09/04 01:28:31;;;;;;;11.23;7.20;;;;;;;20.24;100.00;99978.28;5013414;28;20077;-88
2022/09/04 01:31:06;;;;;;;14.10;7.00;;;;;;;20.35;100.00;99972.53;5013834;28;20476;-88
2022/09/04 01:34:00;;;;;;;13.23;6.20;;;;;;;20.43;100.00;99977.81;5013810;28;20026;-88
2022/09/04 01:36:39;;;;;;;8.20;6.00;;;;;;;20.13;100.00;99977.69;5014014;28;20026;-88
2022/09/04 01:39:05;;;;;;;13.90;6.05;;;;;;;20.25;100.00;99967.44;5014065;28;20026;-88
2022/09/04 01:41:37;;;;;;;11.43;5.85;;;;;;;20.24;100.00;99965.81;5013793;28;20044;-88
2022/09/04 01:44:06;;;;;;;12.15;5.75;;;;;;;20.37;100.00;99971.34;5013573;28;20026;-88
2022/09/04 01:46:34;;;;;;;10.48;5.10;;;;;;;20.37;100.00;99975.84;5013707;28;20030;-88
2022/09/04 01:49:08;;;;;;;7.75;4.10;;;;;;;20.52;100.00;99966.06;5013440;28;20026;-89
2022/09/04 01:52:01;;;;;;;21.02;4.72;;;;;;;20.49;100.00;99963.75;5013737;28;20164;-88
2022/09/04 01:54:41;;;;;;;9.57;4.15;;;;;;;20.26;100.00;99962.94;5011778;28;20455;-88
2022/09/04 01:57:28;;;;;;;7.90;3.10;;;;;;;20.43;100.00;99963.66;5013745;28;20022;-88
2022/09/04 02:00:09;;;;;;;7.07;3.10;;;;;;;20.42;100.00;99952.16;5012760;28;20097;-88
2022/09/04 02:02:51;;;;;;;6.80;3.08;;;;;;;20.50;100.00;99961.94;5013517;28;20034;-88
2022/09/04 02:06:01;;;;;;;6.38;2.67;;;;;;;20.55;100.00;99956.88;5013280;28;20032;-88
2022/09/04 02:08:59;;;;;;;6.22;2.72;;;;;;;20.54;100.00;99955.22;4991144;28;20030;-88
2022/09/04 02:11:28;;;;;;;11.68;2.55;;;;;;;20.50;100.00;99951.28;4975762;28;20124;-87
2022/09/04 02:14:08;;;;;;;8.05;1.98;;;;;;;20.54;100.00;99958.72;5001822;28;20168;-88
2022/09/04 02:17:01;;;;;;;12.52;3.28;;;;;;;20.51;100.00;99953.72;5013090;28;20037;-88
2022/09/04 02:19:47;;;;;;;9.48;1.90;;;;;;;20.31;100.00;99957.91;5012945;28;20510;-88
2022/09/04 02:22:35;;;;;;;8.23;2.20;;;;;;;20.62;100.00;99946.34;5005208;28;20030;-89
2022/09/04 02:25:26;;;;;;;9.00;2.13;;;;;;;20.24;100.00;99951.63;5012804;28;20092;-88
2022/09/04 02:28:07;;;;;;;10.30;2.35;;;;;;;20.40;100.00;99952.34;5013004;28;20049;-88
2022/09/04 02:30:53;;;;;;;7.22;1.90;;;;;;;20.68;100.00;99965.13;5012718;28;20034;-88
2022/09/04 02:33:25;;;;;;;9.45;2.78;;;;;;;20.65;100.00;99946.81;5012874;28;20018;-88
2022/09/04 02:36:03;;;;;;;6.93;1.77;;;;;;;20.71;100.00;99956.75;5012725;28;20037;-88
2022/09/04 02:38:41;;;;;;;5.22;1.55;;;;;;;20.64;100.00;99949.69;5012465;28;20388;-88
2022/09/04 02:41:06;;;;;;;16.77;2.50;;;;;;;20.69;100.00;99952.63;5012754;28;20030;-87
2022/09/04 02:43:46;;;;;;;11.85;1.92;;;;;;;20.45;100.00;99959.78;5012374;28;20534;-88
2022/09/04 02:46:21;;;;;;;10.95;2.42;;;;;;;20.38;100.00;99946.34;5012132;28;20373;-88
2022/09/04 02:48:50;;;;;;;7.28;1.70;;;;;;;20.64;100.00;99955.00;5012002;28;20033;-88
2022/09/04 02:51:53;;;;;;;5.82;1.70;;;;;;;20.64;100.00;99952.34;5010998;28;20431;-88
2022/09/04 02:54:47;;;;;;;6.50;2.17;;;;;;;20.71;100.00;99956.75;5012464;28;20022;-88
2022/09/04 02:57:38;;;;;;;5.05;1.50;;;;;;;20.64;100.00;99958.50;5012251;28;20033;-88
2022/09/04 03:00:18;;;;;;;6.95;2.00;;;;;;;20.75;100.00;99962.56;5011118;28;20026;-88
2022/09/04 03:02:52;;;;;;;8.27;2.85;;;;;;;20.57;100.00;99961.00;5012551;28;20018;-87
2022/09/04 03:05:28;;;;;;;10.10;1.90;;;;;;;20.65;100.00;99959.31;5011148;28;20049;-88
2022/09/04 03:08:04;;;;;;;7.88;2.28;;;;;;;20.67;100.00;99949.28;5010663;28;20048;-88
2022/09/04 03:10:35;;;;;;;9.32;2.00;;;;;;;20.69;100.00;99952.63;5012005;28;20102;-88
2022/09/04 03:13:20;;;;;;;5.72;1.65;;;;;;;20.50;100.00;99952.09;5011975;28;20109;-87
2022/09/04 03:15:49;;;;;;;7.45;1.88;;;;;;;20.76;100.00;99948.22;5012099;28;20061;-88
2022/09/04 03:18:17;;;;;;;8.25;2.03;;;;;;;20.80;100.00;99949.50;5010794;28;20026;-88
2022/09/04 03:21:08;;;;;;;7.65;2.10;;;;;;;20.60;100.00;99950.03;5012230;28;20026;-88
2022/09/04 03:23:50;;;;;;;11.38;2.08;;;;;;;20.60;100.00;99944.69;5012187;28;20026;-88
2022/09/04 03:26:47;;;;;;;8.82;2.10;;;;;;;20.79;100.00;99947.84;5011548;28;20041;-88
2022/09/04 03:29:26;;;;;;;10.32;2.20;;;;;;;20.54;100.00;99942.72;5012065;28;20623;-88
2022/09/04 03:32:11;;;;;;;17.55;2.25;;;;;;;20.76;100.00;99950.88;5010662;28;20033;-88
2022/09/04 03:34:56;;;;;;;8.90;1.85;;;;;;;20.73;100.00;99951.25;5011818;28;20471;-88
2022/09/04 03:37:24;;;;;;;7.90;1.75;;;;;;;20.92;100.00;99953.38;5010774;28;20037;-88
2022/09/04 03:39:55;;;;;;;12.73;2.33;;;;;;;20.85;100.00;99951.63;5011658;28;20034;-88
2022/09/04 03:42:51;;;;;;;11.25;2.33;;;;;;;20.62;100.00;99947.19;5011643;28;20508;-88
2022/09/04 03:45:39;;;;;;;12.00;3.00;;;;;;;20.45;100.00;99943.78;5011903;28;20034;-88
2022/09/04 03:48:26;;;;;;;15.30;2.15;;;;;;;20.40;100.00;99954.19;5011805;28;20054;-88
2022/09/04 03:51:09;;;;;;;10.00;2.30;;;;;;;20.64;100.00;99952.34;5012071;28;20018;-88
2022/09/04 03:53:48;;;;;;;6.95;1.60;;;;;;;20.64;100.00;99955.00;5011848;28;20045;-88
2022/09/04 03:56:35;;;;;;;10.98;2.50;;;;;;;20.67;100.00;99958.13;5011518;28;20520;-88
2022/09/04 03:59:04;;;;;;;13.25;2.53;;;;;;;20.43;100.00;99943.13;4999061;28;20037;-88
2022/09/04 04:01:36;;;;;;;13.02;2.60;;;;;;;20.65;100.00;99962.00;4992525;28;20058;-88
2022/09/04 04:04:01;;;;;;;7.82;2.00;;;;;;;20.78;100.00;99956.88;4992150;28;20029;-88
2022/09/04 04:06:37;;;;;;;8.32;1.63;;;;;;;20.77;100.00;99960.53;4991886;28;20018;-88
2022/09/04 04:09:02;;;;;;;13.10;2.15;;;;;;;20.86;100.00;99963.97;4992076;28;20116;-87
2022/09/04 04:11:38;;;;;;;12.02;3.10;;;;;;;20.66;100.00;99958.31;5011176;28;20559;-87
2022/09/04 04:14:22;;;;;;;13.35;2.28;;;;;;;20.63;100.00;99956.00;5011375;28;20041;-87
2022/09/04 04:17:12;;;;;;;10.50;2.08;;;;;;;20.75;100.00;99955.41;5011627;28;20030;-87
2022/09/04 04:20:13;;;;;;;13.27;2.53;;;;;;;20.76;100.00;99969.56;5014002;28;20388;-87
2022/09/04 04:23:20;;;;;;;12.70;2.45;;;;;;;20.75;100.00;99957.22;5015450;28;20092;-87
2022/09/04 04:25:59;;;;;;;12.88;2.55;;;;;;;20.62;100.00;99943.66;5014876;28;20029;-88
2022/09/04 04:28:30;;;;;;;19.30;3.17;;;;;;;20.42;100.00;99946.84;4994001;28;20495;-87
2022/09/04 04:31:19;;;;;;;7.55;1.83;;;;;;;20.82;100.00;99952.81;4995582;28;20117;-88
2022/09/04 04:34:22;;;;;;;7.85;2.20;;;;;;;20.77;100.00;99957.88;4995655;28;20109;-88
2022/09/04 04:36:57;;;;;;;11.50;2.25;;;;;;;20.63;100.00;99958.69;4993904;28;20043;-87
2022/09/04 04:39:35;;;;;;;9.63;2.67;;;;;;;20.54;100.00;99945.38;4999337;28;20032;-87
2022/09/04 04:42:30;;;;;;;8.05;2.22;;;;;;;20.51;100.00;99943.06;5013609;28;20431;-88
2022/09/04 04:48:30;;;;;;;11.23;2.03;;;;;;;20.43;100.00;99951.13;5014789;28;20033;-88
2022/09/04 04:51:05;;;;;;;14.75;2.50;;;;;;;20.73;100.00;99957.41;5014629;28;20391;-87
2022/09/04 04:54:12;;;;;;;13.73;2.45;;;;;;;20.59;100.00;99958.19;5014756;28;20439;-87
2022/09/04 04:56:58;;;;;;;11.90;2.10;;;;;;;20.45;100.00;99951.78;4994999;28;20026;-87
2022/09/04 04:59:26;;;;;;;14.05;2.78;;;;;;;20.75;100.00;99954.56;4995148;28;20393;-87
2022/09/04 05:02:15;;;;;;;14.20;2.78;;;;;;;20.66;100.00;99950.31;4993604;28;20484;-87
2022/09/04 05:05:12;;;;;;;11.25;2.70;;;;;;;20.75;100.00;99954.56;4993610;28;20160;-87
2022/09/04 05:07:59;;;;;;;12.57;2.50;;;;;;;20.53;100.00;99942.88;4995870;28;20538;-87
2022/09/04 05:10:40;;;;;;;8.75;2.33;;;;;;;20.57;100.00;99945.00;5009997;28;20033;-87
2022/09/04 05:13:31;;;;;;;9.60;2.65;;;;;;;20.71;100.00;99946.06;5001117;28;20112;-87
2022/09/04 05:16:08;;;;;;;13.90;3.25;;;;;;;20.57;100.00;99953.00;5014263;28;20057;-87
2022/09/04 05:18:58;;;;;;;12.63;2.53;;;;;;;20.64;100.00;99945.16;5014033;28;20037;-87
2022/09/04 05:21:32;;;;;;;15.40;2.42;;;;;;;20.75;100.00;99960.75;5014123;28;20033;-87
2022/09/04 05:24:04;;;;;;;11.50;2.65;;;;;;;20.63;100.00;99953.34;5012641;28;20093;-87
2022/09/04 05:26:35;;;;;;;9.30;2.35;;;;;;;20.59;100.00;99953.69;5014026;28;20034;-87
2022/09/04 05:29:05;;;;;;;9.68;2.17;;;;;;;20.81;100.00;99959.16;5013279;28;20030;-88
2022/09/04 05:31:52;;;;;;;10.95;2.10;;;;;;;20.28;100.00;99967.09;5013949;28;20040;-86
2022/09/04 05:34:26;;;;;;;8.30;2.47;;;;;;;20.58;100.00;99961.84;5014699;28;20036;-87
2022/09/04 05:37:01;;;;;;;15.60;3.05;;;;;;;20.42;100.00;99968.16;5007179;28;20120;-87
2022/09/04 05:39:54;;;;;;;9.82;2.38;;;;;;;20.69;100.00;99963.28;5013368;28;20022;-87
2022/09/04 05:42:44;;;;;;;8.93;2.03;;;;;;;20.70;100.00;99964.97;5013570;28;20450;-86
2022/09/04 05:45:31;;;;;;;9.60;2.47;;;;;;;20.58;100.00;99962.69;5013666;28;20029;-87
2022/09/04 05:48:21;;;;;;;13.90;2.55;;;;;;;20.66;100.00;99972.47;5011995;28;20488;-86
2022/09/04 05:51:15;;;;;;;13.10;2.22;;;;;;;20.47;100.00;99971.09;5012625;28;20438;-87
2022/09/04 05:54:18;;;;;;;13.30;2.78;;;;;;;20.50;100.00;99981.44;5012931;28;20026;-86
2022/09/04 05:57:01;;;;;;;12.05;2.95;;;;;;;20.72;100.00;99997.63;5013212;28;20029;-87
2022/09/04 06:00:05;;;;;;;21.50;4.32;;;;;;;20.67;100.00;100007.97;5012128;28;20025;-88
2022/09/04 06:02:49;;;;;;;12.77;2.38;;;;;;;20.59;100.00;100000.88;5013359;28;20030;-87
2022/09/04 06:05:17;;;;;;;11.82;2.65;;;;;;;20.63;100.00;99994.16;5012501;28;20537;-87
2022/09/04 06:07:49;;;;;;;10.38;2.63;;;;;;;20.68;100.00;99994.47;5011849;28;20026;-86
2022/09/04 06:10:26;;;;;;;12.00;2.80;;;;;;;20.98;100.00;99989.19;5010411;28;20042;-87
2022/09/04 06:13:09;;;;;;;11.95;3.00;;;;;;;20.95;100.00;99984.19;5011837;28;20396;-87
2022/09/04 06:16:01;;;;;;;16.95;2.88;;;;;;;20.92;100.00;99989.94;5012730;28;20033;-87
2022/09/04 06:18:52;;;;;;;;;;;;;;;20.86;100.00;100002.16;5013489;28;20100;-87
2022/09/04 06:21:51;;;;;;;16.77;4.00;;;;;;;20.73;100.00;100008.09;5012938;28;19917;-87
2022/09/04 06:24:47;;;;;;;16.92;2.70;;;;;;;20.84;100.00;100014.03;5012630;28;20033;-87
2022/09/04 06:27:23;;;;;;;13.38;2.83;;;;;;;20.90;100.00;100006.09;5012571;28;20034;-87
2022/09/04 06:30:06;;;;;;;15.48;2.65;;;;;;;20.97;100.00;100012.38;5010940;28;20040;-87
2022/09/04 06:32:59;;;;;;;16.35;3.20;;;;;;;20.74;100.00;100014.28;5011386;28;20111;-87
2022/09/04 06:35:31;;;;;;;12.45;2.50;;;;;;;21.02;100.00;100021.69;5011764;28;20030;-87
2022/09/04 06:37:59;;;;;;;13.45;2.40;;;;;;;21.07;100.00;100008.59;5012632;28;20041;-88
2022/09/04 06:41:02;;;;;;;14.10;2.55;;;;;;;20.91;100.00;100005.13;5012271;28;20026;-87
2022/09/04 06:43:39;;;;;;;12.00;2.20;;;;;;;21.09;100.00;100018.13;5012634;28;20026;-88
2022/09/04 06:46:25;;;;;;;13.57;2.80;;;;;;;21.34;100.00;100026.69;5012511;28;20057;-88
2022/09/04 06:48:54;;;;;;;14.50;3.40;;;;;;;21.13;100.00;100031.91;5011324;28;20119;-87
2022/09/04 06:51:24;;;;;;;13.13;2.97;;;;;;;21.23;100.00;100028.97;5012639;28;20034;-88
2022/09/04 06:54:05;;;;;;;11.60;2.92;;;;;;;21.27;100.00;100036.44;5012352;28;20091;-88
2022/09/04 06:56:54;;;;;;;10.25;2.50;;;;;;;21.52;100.00;100038.88;5010908;28;20036;-88
2022/09/04 06:59:23;;;;;;;11.13;2.45;;;;;;;21.20;100.00;100047.00;5012396;28;20029;-88
2022/09/04 07:01:59;;;;;;;12.85;2.40;;;;;;;21.20;100.00;100051.53;5012329;28;20083;-88
2022/09/04 07:04:42;;;;;;;16.00;2.78;;;;;;;21.43;100.00;100078.22;5010157;28;20029;-88
2022/09/04 07:07:23;;;;;;;19.23;4.78;;;;;;;21.59;100.00;100071.84;5011779;28;20520;-88
2022/09/04 07:09:56;;;;;;;11.65;3.13;;;;;;;21.93;100.00;100073.13;5011910;28;20065;-87
2022/09/04 07:12:32;;;;;;;11.80;2.40;;;;;;;21.88;100.00;100078.19;5012272;28;20026;-87
2022/09/04 07:15:27;;;;;;;12.90;3.53;;;;;;;21.78;100.00;100082.00;5003515;28;20068;-88
2022/09/04 07:18:14;;;;;;;10.20;2.47;;;;;;;21.43;100.00;100082.69;4993481;28;20455;-87
2022/09/04 07:20:57;;;;;;;18.30;3.88;;;;;;;21.17;100.00;100089.28;5012214;28;20030;-87
2022/09/04 07:24:01;;;;;;;11.23;2.42;;;;;;;21.36;100.00;100099.41;5012320;28;20515;-87
2022/09/04 07:26:37;;;;;;;11.10;2.45;;;;;;;21.32;100.00;100092.78;4951389;29;20042;-88
2022/09/04 07:29:15;;;;;;;11.50;2.28;;;;;;;21.49;100.00;100098.03;4951053;29;20035;-88
2022/09/04 07:31:53;;;;;;;13.07;3.30;;;;;;;21.20;100.00;100110.25;4984965;28;20043;-88
2022/09/04 07:34:32;;;;;;;14.13;2.53;;;;;;;21.18;100.00;100114.97;5010575;28;20104;-88
2022/09/04 07:37:26;;;;;;;10.55;2.92;;;;;;;21.28;100.00;100112.84;5011623;28;20040;-88
2022/09/04 07:40:00;;;;;;;12.43;2.72;;;;;;;21.63;100.00;100105.19;5008993;28;20034;-88
2022/09/04 07:42:33;;;;;;;9.98;2.47;;;;;;;21.64;100.00;100112.19;5011714;28;20045;-88
2022/09/04 07:45:08;;;;;;;10.90;2.42;;;;;;;21.59;100.00;100112.75;5024147;28;20060;-88
2022/09/04 07:47:54;;;;;;;12.63;2.67;;;;;;;21.53;100.00;100107.31;5027032;28;20095;-88
2022/09/04 07:50:30;;;;;;;10.68;2.92;;;;;;;21.89;100.00;100117.28;4991234;28;20593;-88
2022/09/04 07:53:13;;;;;;;19.83;3.35;;;;;;;21.47;100.00;100122.22;4993823;28;20057;-88
2022/09/04 07:55:47;;;;;;;15.40;3.75;;;;;;;21.82;100.00;100129.72;5013387;28;20068;-88
2022/09/04 07:58:27;;;;;;;11.65;2.80;;;;;;;22.09;100.00;100137.06;5015625;28;20037;-88
2022/09/04 08:01:16;;;;;;;13.20;3.47;;;;;;;21.68;100.00;100140.22;5015669;28;20483;-88
2022/09/04 08:03:58;;;;;;;15.70;3.35;;;;;;;21.47;100.00;100138.25;5014398;28;20045;-88
2022/09/04 08:06:36;;;;;;;13.65;3.45;;;;;;;21.71;100.00;100147.84;5015531;28;20072;-88
2022/09/04 08:09:17;;;;;;;10.90;2.72;;;;;;;22.09;100.00;100150.44;5015327;28;20383;-88
2022/09/04 08:11:53;;;;;;;16.58;3.83;;;;;;;22.30;100.00;100159.59;5015399;28;20036;-88
2022/09/04 08:14:44;;;;;;;14.43;2.85;;;;;;;21.92;100.00;100165.00;5013786;28;20045;-88
2022/09/04 08:17:40;;;;;;;15.00;2.47;;;;;;;22.16;100.00;100167.41;5015387;28;20038;-88
2022/09/04 08:20:41;;;;;;;11.20;2.45;;;;;;;22.06;100.00;100172.22;5013383;28;20041;-88
2022/09/04 08:23:12;;;;;;;12.00;3.53;;;;;;;22.11;100.00;100179.66;5015152;28;20093;-87
2022/09/04 08:25:52;;;;;;;19.75;4.35;;;;;;;22.15;100.00;100184.44;5015083;28;20033;-88
2022/09/04 08:28:43;;;;;;;21.08;3.05;;;;;;;22.41;100.00;100175.13;5015132;28;20034;-88
2022/09/04 08:31:31;;;;;;;16.63;3.22;;;;;;;22.08;100.00;100182.72;5013690;28;20076;-88
2022/09/04 08:34:14;;;;;;;12.70;2.97;;;;;;;22.12;100.00;100179.50;5013408;28;20022;-88
2022/09/04 08:37:06;;;;;;;15.88;3.00;;;;;;;22.07;100.00;100183.72;5014742;28;20037;-88
2022/09/04 08:40:05;;;;;;;16.95;2.97;;;;;;;22.20;100.00;100183.91;5015143;28;20112;-87
2022/09/04 08:42:42;;;;;;;18.40;3.33;;;;;;;22.68;100.00;100194.19;5013673;28;20034;-87
2022/09/04 08:45:45;;;;;;;21.10;3.88;;;;;;;22.78;100.00;100200.06;5014487;28;20133;-88
2022/09/04 08:48:48;;;;;;;17.02;2.55;;;;;;;23.19;98.67;100179.91;5012444;28;20029;-88
2022/09/04 08:51:38;;;;;;;12.50;3.42;;;;;;;24.53;92.41;100172.56;5013398;28;20026;-88
2022/09/04 08:54:38;;;;;;;14.40;2.85;;;;;;;24.55;90.75;100183.09;5014617;28;20113;-88
2022/09/04 08:57:39;;;;;;;12.40;3.40;;;;;;;25.57;86.87;100174.97;5013404;28;20026;-88
2022/09/04 09:00:16;;;;;;;;;;;;;;;25.90;82.58;100194.59;5013767;28;20044;-88
2022/09/04 09:02:44;;;;;;;;;;;;;;;24.64;88.81;100194.47;5014306;28;19913;-89
2022/09/04 09:05:37;;;;;;;17.13;3.67;;;;;;;24.34;91.49;100205.47;5012236;28;19913;-88
2022/09/04 09:08:11;;;;;;;13.75;3.00;;;;;;;24.11;92.00;100217.34;5008425;28;20033;-88
2022/09/04 09:11:06;;;;;;;13.23;3.38;;;;;;;23.65;94.37;100216.97;5006435;28;20514;-89
2022/09/04 09:14:26;;;;;;;12.60;2.35;;;;;;;23.26;97.00;100223.66;4995215;28;20481;-88
2022/09/04 09:17:12;;;;;;;12.20;2.50;;;;;;;23.32;97.47;100212.16;4940977;29;20035;-88
2022/09/04 09:20:07;;;;;;;16.30;2.70;;;;;;;23.48;96.93;100221.78;5012571;28;20032;-88
2022/09/04 09:23:10;;;;;;;15.05;2.53;;;;;;;23.37;97.34;100225.81;5012613;28;20034;-88
2022/09/04 09:25:48;;;;;;;11.48;2.58;;;;;;;23.17;97.72;100236.34;5001578;28;20109;-88
2022/09/04 09:28:49;;;;;;;14.05;2.80;;;;;;;22.76;99.84;100234.22;5001925;28;20192;-88
2022/09/04 09:32:13;;;;;;;11.48;2.90;;;;;;;23.34;98.51;100237.75;4990336;28;20080;-89
2022/09/04 09:35:05;;;;;;;14.88;3.17;;;;;;;23.15;98.99;100241.06;5000924;28;20372;-88
2022/09/04 09:37:58;;;;;;;14.75;3.08;;;;;;;22.93;100.00;100248.22;5013211;28;20026;-88
2022/09/04 09:40:59;;;;;;;12.48;2.88;;;;;;;23.09;99.27;100249.88;5013728;28;20105;-88
2022/09/04 09:43:45;;;;;;;10.50;2.70;;;;;;;22.83;100.00;100269.09;5004306;28;20040;-90
2022/09/04 09:46:47;;;;;;;9.52;1.73;;;;;;;23.04;100.00;100263.81;5012484;28;20018;-90
2022/09/04 09:49:18;;;;;;;17.00;2.72;;;;;;;23.67;97.68;100264.00;5009219;28;20045;-89
2022/09/04 09:52:02;;;;;;;14.60;2.72;;;;;;;24.08;94.83;100260.63;4994821;28;20112;-90
2022/09/04 09:54:42;;;;;;;10.73;2.38;;;;;;;23.78;96.40;100256.50;5011554;28;20434;-89
2022/09/04 09:57:13;;;;;;;13.02;3.65;;;;;;;23.49;98.32;100263.66;5011075;28;20440;-87
2022/09/04 09:59:47;;;;;;;11.38;2.58;;;;;;;23.36;100.00;100272.38;5012217;28;20361;-90
2022/09/04 10:02:43;;;;;;;12.23;2.92;;;;;;;23.61;99.59;100259.41;5004448;28;20404;-90
2022/09/04 10:05:30;;;;;;;11.27;2.65;;;;;;;24.24;95.81;100280.13;5005908;28;20022;-88
2022/09/04 10:07:59;;;;;;;15.40;2.58;;;;;;;24.14;95.88;100275.94;5003546;28;20499;-88
2022/09/04 10:10:59;;;;;;;8.35;1.95;;;;;;;24.24;95.05;100272.09;5027230;28;20176;-90
2022/09/04 10:14:07;;;;;;;14.60;2.75;;;;;;;25.03;92.47;100273.50;5009409;28;20030;-89
2022/09/04 10:16:56;;;;;;;12.43;2.20;;;;;;;24.73;91.16;100279.19;4994954;28;20042;-87
2022/09/04 10:19:53;;;;;;;10.48;2.45;;;;;;;25.49;88.09;100267.41;5011641;28;20480;-87
2022/09/04 10:22:21;;;;;;;15.68;3.38;;;;;;;25.60;87.26;100266.81;4995127;28;20042;-87
2022/09/04 10:25:25;;;;;;;11.98;2.53;;;;;;;25.70;85.45;100267.22;5011601;28;20096;-90
2022/09/04 10:28:06;;;;;;;16.30;3.33;;;;;;;26.46;81.73;100267.72;5012357;28;20375;-88
2022/09/04 10:30:52;;;;;;;12.43;2.70;;;;;;;25.03;86.13;100268.13;5010414;28;20341;-88
2022/09/04 10:33:43;;;;;;;17.63;3.28;;;;;;;24.84;87.87;100273.25;5011197;28;20038;-89
2022/09/04 10:36:34;;;;;;;23.40;4.03;;;;;;;25.06;87.79;100273.06;5028583;28;20025;-88
2022/09/04 10:42:34;;;;;;;13.98;2.92;;;;;;;25.19;85.38;100283.03;4988675;28;20045;-88
2022/09/04 10:45:26;;;;;;;17.00;3.90;;;;;;;25.84;83.39;100270.72;4993830;28;20041;-89
2022/09/04 10:48:12;;;;;;;10.73;2.70;;;;;;;29.31;69.33;100254.69;5009886;28;20571;-88
2022/09/04 10:50:55;;;;;;;;;;;;;;;31.06;56.61;100251.22;5013568;28;20030;-89
2022/09/04 10:53:35;;;;;;;;;;;;;;;31.21;55.07;100248.78;5013120;28;19917;-88
2022/09/04 10:56:15;;;;;;;;;;;;;;;29.49;57.42;100253.78;4993497;28;20007;-89
2022/09/04 10:58:45;;;;;;;;;;;;;;;29.12;59.80;100270.13;5012716;28;19924;-88
2022/09/04 11:01:17;;;;;;;;;;;;;;;29.99;57.60;100277.69;5011639;28;19913;-89
2022/09/04 11:03:43;;;;;;;;;;;;;;;28.45;60.10;100279.03;5010482;28;20028;-89
2022/09/04 11:06:24;;;;;;;;;;;;;;;28.20;61.71;100275.56;5012358;28;19925;-88
2022/09/04 11:09:02;;;;;;;;;;;;;;;27.26;65.28;100288.97;5012543;28;19952;-88
2022/09/04 11:11:27;;;;;;;;;;;;;;;26.25;70.19;100315.41;5012714;28;19925;-89
2022/09/04 11:14:11;;;;;;;;;;;;;;;25.89;74.25;100305.91;4993404;28;20044;-88
2022/09/04 11:16:52;;;;;;;;;;;;;;;26.18;74.15;100293.06;4993166;28;19921;-89
2022/09/04 11:19:42;;;;;;;11.90;2.03;;;;;;;25.81;77.04;100294.50;5012056;28;20012;-89
2022/09/04 11:22:38;;;;;;;13.82;3.08;;;;;;;26.39;76.05;100293.88;5004180;28;20086;-90
2022/09/04 11:25:36;;;;;;;12.17;2.50;;;;;;;26.44;74.47;100291.34;5013780;28;20030;-91
2022/09/04 11:28:39;;;;;;;13.32;2.53;;;;;;;25.99;78.40;100300.13;5009129;28;20022;-90
2022/09/04 11:31:27;;;;;;;10.52;2.67;;;;;;;25.85;78.93;100290.38;4991367;28;20031;-89
2022/09/04 11:34:12;;;;;;;12.85;2.65;;;;;;;25.80;78.79;100292.88;5010661;28;20053;-89
2022/09/04 11:37:15;;;;;;;14.15;3.78;;;;;;;25.80;79.00;100290.19;5009972;28;20024;-89
2022/09/04 11:39:43;;;;;;;13.65;2.70;;;;;;;25.83;78.80;100305.88;5012068;28;20091;-91
2022/09/04 11:42:26;;;;;;;13.43;2.63;;;;;;;25.80;78.96;100291.00;5003803;28;20023;-90
2022/09/04 11:45:04;;;;;;;12.95;2.70;;;;;;;26.13;77.92;100306.34;5008678;28;20471;-90
2022/09/04 11:47:33;;;;;;;16.42;3.50;;;;;;;25.96;78.88;100322.06;5011803;28;20518;-89
2022/09/04 11:50:18;;;;;;;15.52;3.35;;;;;;;26.02;77.71;100309.66;5010209;28;20053;-90
2022/09/04 11:53:03;;;;;;;11.13;2.53;;;;;;;26.45;75.24;100298.41;5009777;28;20026;-92
2022/09/04 11:55:56;;;;;;;10.70;2.42;;;;;;;26.72;74.78;100291.09;4992162;28;20030;-91
2022/09/04 11:58:49;;;;;;;13.48;2.60;;;;;;;25.98;76.51;100303.84;4999814;28;20479;-90
2022/09/04 12:01:30;;;;;;;11.63;2.63;;;;;;;25.98;77.95;100300.34;4998266;28;20042;-90
2022/09/04 12:04:22;;;;;;;14.13;2.40;;;;;;;25.80;77.83;100303.63;4997516;28;20480;-90
2022/09/04 12:06:57;;;;;;;11.02;2.80;;;;;;;25.81;77.28;100316.88;5006010;28;20065;-90
2022/09/04 12:09:46;;;;;;;13.57;2.90;;;;;;;25.95;77.74;100303.44;5011186;28;20030;-90
2022/09/04 12:12:49;;;;;;;10.77;2.65;;;;;;;25.32;80.46;100313.50;5008516;28;20046;-90
2022/09/04 12:15:56;;;;;;;9.07;2.47;;;;;;;25.66;80.10;100308.16;5004037;28;20026;-90
2022/09/04 12:18:43;;;;;;;13.65;2.30;;;;;;;25.12;81.85;100315.28;4969552;28;20081;-90
2022/09/04 12:21:21;;;;;;;10.93;2.95;;;;;;;25.09;82.62;100319.16;5007284;28;20030;-90
2022/09/04 12:23:49;;;;;;;12.20;2.40;;;;;;;25.56;81.22;100327.38;5009516;28;20018;-90
2022/09/04 12:26:36;;;;;;;10.55;2.72;;;;;;;25.38;80.72;100319.09;5010018;28;20042;-90
2022/09/04 12:29:32;;;;;;;14.65;3.15;;;;;;;25.53;79.95;100314.34;5011418;28;20032;-90
2022/09/04 12:32:27;;;;;;;12.00;2.28;;;;;;;25.47;80.04;100317.84;4990766;28;20022;-89
2022/09/04 12:35:12;;;;;;;12.02;3.17;;;;;;;25.34;79.73;100326.72;5005917;28;20304;-89
2022/09/04 12:37:56;;;;;;;18.27;4.10;;;;;;;25.03;79.74;100322.66;5009610;28;20064;-89
2022/09/04 12:40:47;;;;;;;24.77;4.18;;;;;;;25.06;81.26;100318.75;5013959;28;20514;-89
2022/09/04 12:43:15;;;;;;;10.82;2.72;;;;;;;24.98;81.40;100314.41;5014949;28;20037;-89
2022/09/04 12:45:50;;;;;;;9.25;3.13;;;;;;;25.13;80.35;100322.28;5012337;28;20072;-90